Thursday, April 26, 2018, 5:34 AM EDT
Back to Local

KPSM, Pease Air Force Base / Portsmouth

Location: Portsmouth, NH, United States Lat: 43.083
Local Time: 5:34 AM EDT ( 9:34 GMT) Lon: -70.817
Time Zone: US/Eastern Elev: 101 ft

Show me the last for .
Show Coded

Time T Td Feel RH Dir Speed Gust Alt SLP Vis Weather Sky Remarks
2018-04-26 04:56 48 48 47 100 10° 3 - 29.57 29.58 0 FG VV001 None
2018-04-26 03:56 48 48 46 100 50° 5 - 29.59 29.60 0 FG VV001 None
2018-04-26 02:56 48 47 - 98 - Calm - 29.61 29.62 0 FG VV001 None
2018-04-26 02:45 48 48 46 100 90° 5 - 29.61 - 0 FG VV001 None
2018-04-26 01:56 48 48 47 98 90° 5 - 29.63 29.64 0 FG VV001 1-hr Precip Total: 0.01"
6-hr Precip Total (2am): 0.31"
6-hr Min Temp (2am): 48.2°F
6-hr Max Temp (2am): 49.8°F
2018-04-26 01:19 48 48 47 100 80° 3 - 29.64 - 0 -RA FG OVC001 None
2018-04-26 00:56 48 48 47 98 90° 5 - 29.65 29.66 0 -DZ FG OVC002 1-hr Precip Total: 0.01"
24-hr Min Temp (1am): 46.2°F
24-hr Max Temp (1am): 53.4°F
2018-04-25 23:56 48 48 46 98 150° 6 - 29.68 29.69 1 -RA BR BKN002 OVC008 1-hr Precip Total: 0.08"
2018-04-25 22:56 49 48 45 98 140° 8 - 29.72 29.73 0 -RA BR OVC002 1-hr Precip Total: 0.04"
6-hr Precip Total (11pm): 0.21"
2018-04-25 22:33 48 48 46 100 120° 6 - 29.72 - 0 -RA BR OVC002 None
2018-04-25 21:56 49 48 45 98 120° 8 - 29.74 29.75 1 -RA BR OVC003 1-hr Precip Total: 0.10"
2018-04-25 21:30 48 48 45 100 130° 7 - 29.75 - 1 RA BR OVC003 None
2018-04-25 20:56 49 48 45 98 120° 9 - 29.76 29.77 3 -RA BR BKN003 OVC006 1-hr Precip Total: 0.08"
2018-04-25 20:47 48 48 44 100 120° 10 - 29.76 - 3 -RA BR BKN003 OVC006 None
2018-04-25 19:56 50 50 43 98 120° 15 23 29.78 29.79 1 -RA BR BKN003 OVC008 1-hr Precip Total: 0.14"
6-hr Precip Total (8pm): 0.78"
6-hr Min Temp (8pm): 48.2°F
6-hr Max Temp (8pm): 51.3°F
2018-04-25 18:56 49 49 45 98 140° 8 - 29.80 29.81 1 RA BR OVC003 1-hr Precip Total: 0.29"
2018-04-25 17:56 49 48 44 98 100° 10 - 29.84 29.85 1 RA BR OVC003 1-hr Precip Total: 0.11"
2018-04-25 16:56 48 48 43 98 110° 12 - 29.88 29.89 1 -RA BR OVC003 1-hr Precip Total: 0.09"
6-hr Precip Total (5pm): 0.23"
2018-04-25 15:56 49 48 43 98 110° 14 - 29.90 29.91 1 RA BR OVC003 1-hr Precip Total: 0.11"
2018-04-25 14:56 49 48 42 98 110° 17 - 29.95 29.96 1 -RA BR OVC003 1-hr Precip Total: 0.03"
2018-04-25 13:56 49 48 44 98 110° 12 - 29.98 29.99 1 -RA BR OVC003 1-hr Precip Total: 0.02"
6-hr Precip Total (2pm): 0.07"
6-hr Min Temp (2pm): 46.2°F
6-hr Max Temp (2pm): 50.5°F
2018-04-25 13:39 50 48 46 93 110° 12 - 29.99 - 1 -RA BR BKN003 OVC010 None
2018-04-25 12:56 50 49 - 96 110° 12 - 30.02 30.03 4 -RA BR BKN005 OVC010 1-hr Precip Total: 0.01"
2018-04-25 11:56 50 49 46 96 100° 9 - 30.05 30.06 4 -RA BR OVC006 1-hr Precip Total: 0.01"
2018-04-25 10:56 49 48 45 94 80° 10 - 30.08 30.09 7 -RA OVC009 1-hr Precip Total: 0.01"
6-hr Precip Total (11am): 0.03"
2018-04-25 10:14 50 48 47 93 100° 7 - 30.09 - 10 -RA BKN010 OVC040 None
2018-04-25 09:56 49 48 45 96 80° 8 - 30.10 30.11 7 -RA FEW020 BKN040 OVC090 1-hr Precip Total: 0.01"
2018-04-25 08:56 47 45 43 94 80° 7 - 30.12 30.13 7 -RA OVC035 1-hr Precip Total: 0.01"
2018-04-25 07:56 48 42 46 79 90° 5 - 30.14 30.15 10 -RA FEW040 OVC060 1-hr Precip Total: Trace
6-hr Precip Total (8am): 0.00"
6-hr Min Temp (8am): 48.0°F
6-hr Max Temp (8am): 53.4°F
2018-04-25 07:36 48 41 47 76 120° 3 - 30.14 - 10 -RA SCT040 OVC080 None
2018-04-25 06:56 49 37 46 63 100° 6 - 30.14 30.15 10 BKN055 OVC150 None
2018-04-25 05:56 48 36 47 62 100° 5 - 30.14 30.15 10 SCT070 BKN150 OVC200 None

Support USWX by starting your Amazon purchase here.